Truthville, New York
Current Conditions -  °F | °C
As of 4:53 PM on Friday 28 Nov 2014 (Local Time) from KGFL Reporting Station
Scattered Clouds Scattered Clouds  
Wind Chill: -6°   Ceiling: Unl
Heat Index: -3°   Visibility: 10mi
Dew Point: -11°   Wind: 6mph
Humidity: 53%   Direction: 280°W
Pressure: 30.15"   Gusts: NA
Location:  43.3389°N, 73.3194°W
Report Text: KGFL 282153Z AUTO 28005KT 10SM SCT046 M03/M11 A3015 RMK AO2 SLP221 T10281111
Loading
Personal Weather Stations






























Interactive Weather Map New forecast layout! Learn more

10-Day Weather Forecast

Advertisements
Track Severe Weather on mobile